Time;durP1;ratioP1;P1;durP2;ratioP2;P2;SDS_P1;SDS_P2;PMS_P1;PMS_P2;Temp;Humidity;BMP_temperature;BMP_pressure;BME280_temperature;BME280_humidity;BME280_pressure;Samples;Min_cycle;Max_cycle;Signal;HPM_P1;HPM_P2
2023/06/15 00:01:14;;;;;;;2.10;2.00;;;22.90;75.30;;;;;;5002153;28;20508;-75
2023/06/15 00:03:41;;;;;;;1.73;1.63;;;22.80;75.20;;;;;;5005111;28;20496;-77
2023/06/15 00:06:07;;;;;;;2.42;2.33;;;22.90;75.30;;;;;;5006169;28;20045;-75
2023/06/15 00:08:34;;;;;;;2.00;1.90;;;22.90;75.30;;;;;;5018843;28;20042;-75
2023/06/15 00:11:00;;;;;;;2.00;1.90;;;22.80;76.00;;;;;;5003158;28;20463;-75
2023/06/15 00:13:25;;;;;;;2.15;2.05;;;22.90;75.20;;;;;;5004210;28;20060;-75
2023/06/15 00:15:51;;;;;;;1.90;1.80;;;22.80;75.10;;;;;;5003100;28;20056;-75
2023/06/15 00:18:17;;;;;;;1.90;1.80;;;22.90;75.10;;;;;;5004323;28;20552;-75
2023/06/15 00:20:44;;;;;;;2.00;1.90;;;22.80;75.10;;;;;;5003425;28;20084;-75
2023/06/15 00:23:09;;;;;;;1.77;1.67;;;22.80;75.10;;;;;;5004049;28;20122;-75
2023/06/15 00:25:35;;;;;;;2.60;2.50;;;22.90;75.10;;;;;;5004326;28;20556;-75
2023/06/15 00:28:01;;;;;;;2.53;2.42;;;22.90;75.90;;;;;;5004284;28;20581;-75
2023/06/15 00:30:27;;;;;;;2.20;2.10;;;22.90;77.50;;;;;;5003778;28;20050;-75
2023/06/15 00:32:52;;;;;;;1.95;1.73;;;22.90;78.10;;;;;;5008141;28;20045;-75
2023/06/15 00:35:18;;;;;;;2.10;2.00;;;22.90;78.30;;;;;;5003329;28;20185;-75
2023/06/15 00:37:43;;;;;;;1.50;1.50;;;22.90;77.90;;;;;;5004694;28;20042;-75
2023/06/15 00:40:09;;;;;;;1.77;1.67;;;22.90;77.60;;;;;;5001995;28;20133;-76
2023/06/15 00:42:35;;;;;;;1.70;1.60;;;22.90;77.40;;;;;;5015100;28;20038;-75
2023/06/15 00:45:03;;;;;;;2.13;2.03;;;22.90;77.30;;;;;;5006479;28;20034;-76
2023/06/15 00:47:28;;;;;;;2.25;2.15;;;22.90;77.30;;;;;;5003833;28;20046;-75
2023/06/15 00:49:54;;;;;;;2.03;1.92;;;22.90;77.10;;;;;;5005036;28;20050;-76
2023/06/15 00:52:20;;;;;;;1.98;1.88;;;22.90;76.90;;;;;;4998832;28;20065;-76
2023/06/15 00:54:46;;;;;;;2.08;1.98;;;22.90;76.80;;;;;;5002122;28;20125;-75
2023/06/15 00:57:12;;;;;;;1.75;1.65;;;22.90;76.70;;;;;;5002459;28;20046;-76
2023/06/15 00:59:38;;;;;;;1.60;1.60;;;22.90;76.50;;;;;;5003601;28;20073;-76
2023/06/15 01:02:04;;;;;;;2.08;1.98;;;22.90;76.50;;;;;;5003855;28;20054;-76
2023/06/15 01:04:30;;;;;;;1.80;1.70;;;22.90;76.40;;;;;;5003711;28;20042;-75
2023/06/15 01:07:01;;;;;;;1.85;1.75;;;22.90;76.30;;;;;;5004116;28;20050;-75
2023/06/15 01:09:28;;;;;;;2.28;1.90;;;22.90;76.30;;;;;;4999757;28;20038;-75
2023/06/15 01:11:55;;;;;;;1.85;1.75;;;22.90;76.10;;;;;;4998280;28;20111;-75
2023/06/15 01:14:22;;;;;;;2.30;2.20;;;22.90;76.10;;;;;;5003287;28;20056;-75
2023/06/15 01:16:52;;;;;;;2.25;2.05;;;22.90;76.00;;;;;;5019427;28;20396;-74
2023/06/15 01:22:49;;;;;;;1.80;1.70;;;22.90;76.00;;;;;;5003533;28;20518;-75
2023/06/15 01:25:29;;;;;;;2.05;1.95;;;22.90;75.80;;;;;;5002057;28;20077;-75
2023/06/15 01:27:59;;;;;;;1.90;1.80;;;22.90;75.70;;;;;;5005179;28;20054;-75
2023/06/15 01:30:27;;;;;;;2.00;1.90;;;22.90;75.60;;;;;;5000829;28;20057;-75
2023/06/15 01:32:53;;;;;;;1.98;1.88;;;22.90;75.60;;;;;;5003994;28;20427;-75
2023/06/15 01:35:19;;;;;;;1.90;1.80;;;22.80;75.50;;;;;;4999799;28;20538;-76
2023/06/15 01:37:45;;;;;;;1.92;1.83;;;22.90;76.30;;;;;;5002354;28;20122;-75
2023/06/15 01:40:11;;;;;;;1.95;1.85;;;22.80;75.40;;;;;;5000277;28;20033;-75
2023/06/15 01:42:37;;;;;;;2.00;1.90;;;22.90;75.40;;;;;;5002812;28;20412;-75
2023/06/15 01:45:03;;;;;;;1.55;1.55;;;22.80;75.30;;;;;;5001774;28;20034;-76
2023/06/15 01:47:29;;;;;;;1.80;1.70;;;22.90;75.40;;;;;;5004637;28;20054;-75
2023/06/15 01:49:54;;;;;;;2.00;1.90;;;22.80;75.30;;;;;;4994477;28;20050;-75
2023/06/15 01:52:20;;;;;;;1.90;1.80;;;22.90;75.40;;;;;;4999730;28;20451;-75
2023/06/15 01:54:47;;;;;;;1.88;1.77;;;22.80;75.40;;;;;;5003250;28;20136;-75
2023/06/15 01:57:12;;;;;;;1.90;1.80;;;22.80;75.50;;;;;;5016426;28;20302;-75
2023/06/15 01:59:38;;;;;;;1.83;1.73;;;22.80;75.30;;;;;;5003804;28;20084;-75
2023/06/15 02:02:04;;;;;;;2.10;2.00;;;22.90;75.40;;;;;;5018535;28;20030;-75
2023/06/15 02:04:29;;;;;;;1.60;1.50;;;22.80;75.30;;;;;;5002937;28;20046;-75
2023/06/15 02:06:57;;;;;;;1.75;1.65;;;22.80;75.30;;;;;;5002296;28;20045;-75
2023/06/15 02:09:23;;;;;;;1.70;1.70;;;22.80;75.30;;;;;;5001784;28;20025;-75
2023/06/15 02:11:48;;;;;;;1.90;1.80;;;22.80;75.20;;;;;;5004749;28;20057;-75
2023/06/15 02:14:17;;;;;;;2.08;1.98;;;22.80;75.20;;;;;;5000994;28;20042;-75
2023/06/15 02:16:43;;;;;;;2.00;1.90;;;22.80;75.20;;;;;;5001655;28;20125;-75
2023/06/15 02:19:09;;;;;;;1.95;1.85;;;22.80;75.10;;;;;;4999540;28;20579;-75
2023/06/15 02:21:35;;;;;;;1.95;1.85;;;22.80;75.10;;;;;;5002321;28;20573;-75
2023/06/15 02:24:00;;;;;;;1.95;1.50;;;22.80;75.20;;;;;;5004640;28;20464;-75
2023/06/15 02:26:26;;;;;;;1.65;1.55;;;22.80;75.10;;;;;;5004599;28;20041;-75
2023/06/15 02:28:51;;;;;;;1.80;1.70;;;22.80;75.10;;;;;;5004888;28;20427;-75
2023/06/15 02:31:17;;;;;;;1.52;1.50;;;22.80;75.10;;;;;;5002207;28;20431;-75
2023/06/15 02:33:42;;;;;;;1.75;1.65;;;22.80;75.10;;;;;;5000446;28;20397;-75
2023/06/15 02:36:09;;;;;;;1.77;1.67;;;22.80;75.10;;;;;;5002036;28;20407;-75
2023/06/15 02:38:37;;;;;;;1.70;1.70;;;22.80;75.00;;;;;;5005864;28;20100;-75
2023/06/15 02:41:02;;;;;;;1.80;1.70;;;22.80;75.00;;;;;;4999591;28;20121;-75
2023/06/15 02:43:28;;;;;;;1.50;1.50;;;22.80;75.00;;;;;;5002790;28;20125;-75
2023/06/15 02:45:54;;;;;;;1.48;1.48;;;22.80;75.00;;;;;;5018504;28;20053;-75
2023/06/15 02:48:20;;;;;;;1.75;1.65;;;22.80;75.00;;;;;;5001683;28;20096;-75
2023/06/15 02:50:45;;;;;;;1.45;1.45;;;22.80;75.00;;;;;;5004179;28;20050;-74
2023/06/15 02:53:12;;;;;;;1.73;1.63;;;22.80;75.70;;;;;;5001320;28;20038;-75
2023/06/15 02:55:38;;;;;;;1.95;1.85;;;22.80;75.00;;;;;;4998399;28;20128;-74
2023/06/15 02:58:03;;;;;;;1.90;1.80;;;22.80;75.00;;;;;;4999704;28;20117;-74
2023/06/15 03:00:30;;;;;;;1.70;1.70;;;22.80;75.00;;;;;;5002785;28;20088;-75
2023/06/15 03:02:55;;;;;;;1.60;1.60;;;22.80;74.80;;;;;;5003558;28;20042;-74
2023/06/15 03:05:22;;;;;;;1.88;1.80;;;22.80;74.90;;;;;;5002235;28;20041;-74
2023/06/15 03:07:48;;;;;;;1.95;1.85;;;22.80;74.90;;;;;;5003734;28;20054;-74
2023/06/15 03:10:13;;;;;;;1.80;1.70;;;22.80;74.80;;;;;;4998435;28;20050;-75
2023/06/15 03:12:39;;;;;;;1.63;1.52;;;22.80;74.80;;;;;;5001992;28;20447;-75
2023/06/15 03:15:08;;;;;;;1.73;1.63;;;22.80;74.80;;;;;;5003462;28;20050;-75
2023/06/15 03:17:34;;;;;;;1.65;1.55;;;22.80;74.70;;;;;;5008313;28;20073;-74
2023/06/15 03:20:00;;;;;;;1.58;1.58;;;22.80;74.70;;;;;;5001548;28;20053;-75
2023/06/15 03:22:26;;;;;;;1.75;1.45;;;22.80;74.70;;;;;;5005181;28;20046;-74
2023/06/15 03:24:55;;;;;;;2.05;1.90;;;22.80;74.70;;;;;;5005200;28;20073;-74
2023/06/15 03:27:20;;;;;;;1.35;1.35;;;22.80;74.60;;;;;;5004263;28;20571;-74
2023/06/15 03:29:49;;;;;;;1.58;1.58;;;22.80;74.60;;;;;;5006371;28;20103;-74
2023/06/15 03:32:15;;;;;;;1.60;1.60;;;22.80;75.40;;;;;;5004046;28;20046;-74
2023/06/15 03:34:40;;;;;;;1.52;1.42;;;22.80;74.60;;;;;;5002592;28;20057;-74
2023/06/15 03:37:06;;;;;;;1.70;1.60;;;22.80;74.60;;;;;;5004262;28;20046;-75
2023/06/15 03:39:32;;;;;;;1.90;1.80;;;22.80;74.50;;;;;;5005703;28;20097;-74
2023/06/15 03:41:57;;;;;;;1.70;1.60;;;22.80;74.60;;;;;;5008440;28;20045;-74
2023/06/15 03:44:23;;;;;;;1.80;1.80;;;22.80;74.40;;;;;;5004742;28;20129;-74
2023/06/15 03:46:49;;;;;;;1.92;1.83;;;22.70;74.50;;;;;;5006691;28;20495;-74
2023/06/15 03:49:14;;;;;;;2.08;1.98;;;22.70;74.40;;;;;;5003521;28;20035;-74
2023/06/15 03:51:40;;;;;;;2.00;1.90;;;22.70;74.30;;;;;;5007937;28;20061;-74
2023/06/15 03:54:06;;;;;;;1.60;1.60;;;22.70;74.30;;;;;;5005305;28;20459;-74
2023/06/15 03:56:31;;;;;;;1.50;1.50;;;22.70;74.20;;;;;;5004289;28;20041;-75
2023/06/15 03:58:57;;;;;;;1.80;1.70;;;22.80;74.40;;;;;;5007130;28;20066;-74
2023/06/15 04:01:25;;;;;;;1.95;1.85;;;22.70;74.20;;;;;;5002806;28;20403;-74
2023/06/15 04:03:54;;;;;;;1.50;1.50;;;22.80;74.50;;;;;;5019167;28;20038;-74
2023/06/15 04:06:21;;;;;;;1.80;1.70;;;22.70;74.40;;;;;;5003591;28;20129;-74
2023/06/15 04:08:46;;;;;;;1.73;1.63;;;22.70;74.50;;;;;;5007195;28;20050;-75
2023/06/15 04:11:12;;;;;;;1.80;1.70;;;22.70;74.50;;;;;;5001233;28;20174;-74
2023/06/15 04:13:38;;;;;;;1.35;1.35;;;22.70;74.90;;;;;;5004223;28;20061;-75
2023/06/15 04:16:04;;;;;;;1.55;1.55;;;22.70;75.20;;;;;;5002124;28;20070;-75
2023/06/15 04:18:30;;;;;;;1.85;1.75;;;22.70;74.30;;;;;;5004006;28;20471;-74
2023/06/15 04:20:55;;;;;;;1.50;1.50;;;22.70;74.30;;;;;;5020357;28;20042;-76
2023/06/15 04:23:21;;;;;;;1.70;1.60;;;22.70;74.20;;;;;;5004666;28;20095;-74
2023/06/15 04:25:47;;;;;;;1.63;1.60;;;22.70;74.60;;;;;;5006744;28;20503;-74
2023/06/15 04:28:13;;;;;;;1.75;1.70;;;22.70;74.50;;;;;;5002655;28;21479;-74
2023/06/15 04:30:44;;;;;;;1.65;1.58;;;22.70;74.40;;;;;;5003461;28;20504;-75
2023/06/15 04:33:12;;;;;;;1.60;1.60;;;22.70;75.10;;;;;;4985611;28;20522;-74
2023/06/15 04:35:47;;;;;;;1.58;1.50;;;22.70;74.50;;;;;;5017032;28;20081;-74
2023/06/15 04:38:13;;;;;;;1.77;1.67;;;22.70;74.50;;;;;;5004251;28;20050;-74
2023/06/15 04:40:42;;;;;;;1.73;1.63;;;22.70;74.50;;;;;;5003806;28;20053;-74
2023/06/15 04:43:08;;;;;;;1.70;1.60;;;22.70;74.30;;;;;;5003606;28;20068;-74
2023/06/15 04:45:35;;;;;;;1.95;1.85;;;22.70;74.40;;;;;;5006341;28;20060;-74
2023/06/15 04:48:00;;;;;;;1.67;1.67;;;22.70;74.50;;;;;;5018365;28;20041;-74
2023/06/15 04:50:26;;;;;;;2.88;2.78;;;22.70;74.50;;;;;;5003554;28;20046;-79
2023/06/15 04:52:51;;;;;;;7.63;6.88;;;22.70;71.60;;;;;;5000856;28;20041;-74
2023/06/15 04:55:17;;;;;;;10.93;9.35;;;21.40;67.10;;;;;;5001077;28;20606;-75
2023/06/15 04:57:44;;;;;;;11.93;9.60;;;20.50;70.50;;;;;;5001884;28;20415;-76
2023/06/15 05:00:10;;;;;;;11.18;9.63;;;20.10;71.80;;;;;;5003901;28;20439;-76
2023/06/15 05:02:36;;;;;;;10.93;9.30;;;19.80;72.50;;;;;;5004329;28;20129;-77
2023/06/15 05:05:02;;;;;;;10.15;9.10;;;19.70;73.30;;;;;;5001144;28;20434;-77
2023/06/15 05:07:27;;;;;;;12.95;9.68;;;19.30;74.40;;;;;;5003259;28;20042;-78
2023/06/15 05:09:53;;;;;;;11.27;10.07;;;19.30;74.50;;;;;;5009150;28;20134;-79
2023/06/15 05:12:19;;;;;;;12.82;11.52;;;19.10;74.90;;;;;;5003885;28;20046;-78
2023/06/15 05:14:44;;;;;;;11.48;10.38;;;19.10;75.70;;;;;;5006587;28;20074;-78
2023/06/15 05:17:10;;;;;;;17.27;11.18;;;19.10;75.70;;;;;;5001797;28;20041;-79
2023/06/15 05:19:36;;;;;;;14.23;11.35;;;19.10;76.00;;;;;;5000178;28;20053;-77
2023/06/15 05:22:01;;;;;;;12.48;11.23;;;19.10;76.10;;;;;;5002912;28;20039;-79
2023/06/15 05:24:27;;;;;;;15.20;12.27;;;19.00;76.30;;;;;;5003110;28;20109;-79
2023/06/15 05:26:53;;;;;;;13.43;11.93;;;18.90;76.40;;;;;;5003037;28;20520;-79
2023/06/15 05:29:19;;;;;;;14.32;12.85;;;18.90;76.70;;;;;;5001719;28;20045;-79
2023/06/15 05:31:44;;;;;;;15.75;12.18;;;18.90;76.50;;;;;;5002974;28;20030;-80
2023/06/15 05:34:10;;;;;;;13.00;11.73;;;18.80;76.80;;;;;;4999482;28;20508;-79
2023/06/15 05:36:36;;;;;;;12.68;11.38;;;18.80;76.90;;;;;;5002256;28;20045;-80
2023/06/15 05:39:01;;;;;;;15.98;12.38;;;19.00;76.60;;;;;;5006155;28;20514;-80
2023/06/15 05:41:27;;;;;;;13.65;11.88;;;18.90;76.50;;;;;;5002911;28;20129;-83
2023/06/15 05:43:52;;;;;;;14.75;13.18;;;18.80;77.20;;;;;;5006415;28;20180;-81
2023/06/15 05:46:18;;;;;;;17.40;13.57;;;18.80;77.30;;;;;;4651457;28;10000498;-82
2023/06/15 05:48:44;;;;;;;18.15;14.60;;;18.80;77.10;;;;;;5001029;28;20046;-79
2023/06/15 05:51:10;;;;;;;15.38;13.35;;;18.70;77.60;;;;;;4998896;28;20068;-83
2023/06/15 05:53:36;;;;;;;15.80;13.00;;;18.70;77.80;;;;;;5003072;28;20519;-81
2023/06/15 05:56:03;;;;;;;14.15;12.55;;;18.80;77.50;;;;;;4999452;28;20149;-80
2023/06/15 05:58:28;;;;;;;15.18;12.57;;;18.80;77.70;;;;;;4999580;28;20057;-80
2023/06/15 06:00:54;;;;;;;20.15;14.48;;;18.80;77.50;;;;;;4998173;28;20078;-79
2023/06/15 06:03:20;;;;;;;13.77;12.35;;;18.80;77.60;;;;;;5000407;28;20104;-78
2023/06/15 06:05:45;;;;;;;17.40;13.13;;;18.90;77.40;;;;;;5002795;28;20060;-80
2023/06/15 06:08:11;;;;;;;15.90;14.35;;;18.80;77.90;;;;;;5000437;28;20041;-79
2023/06/15 06:10:37;;;;;;;17.40;15.18;;;18.90;77.90;;;;;;5000206;28;20707;-80
2023/06/15 06:13:02;;;;;;;18.90;14.95;;;18.70;78.30;;;;;;4999031;28;20042;-83
2023/06/15 06:15:28;;;;;;;17.27;14.32;;;18.80;78.10;;;;;;5003524;28;20539;-83
2023/06/15 06:17:54;;;;;;;20.33;14.55;;;18.80;78.30;;;;;;5005431;28;20416;-82
2023/06/15 06:20:19;;;;;;;16.63;14.93;;;18.80;78.40;;;;;;5002375;28;20042;-82
2023/06/15 06:22:45;;;;;;;14.27;12.68;;;18.80;78.90;;;;;;5003285;28;20041;-80
2023/06/15 06:25:14;;;;;;;14.43;12.98;;;18.90;78.70;;;;;;5000197;28;20088;-79
2023/06/15 06:27:40;;;;;;;13.30;12.10;;;19.20;77.50;;;;;;4999375;28;20053;-79
2023/06/15 06:30:06;;;;;;;12.88;11.35;;;19.40;77.20;;;;;;5001212;28;20050;-82
2023/06/15 06:32:32;;;;;;;12.93;10.88;;;19.60;76.60;;;;;;4996560;28;20033;-80
2023/06/15 06:34:57;;;;;;;11.63;9.70;;;19.80;75.80;;;;;;5002307;28;20053;-83
2023/06/15 06:37:24;;;;;;;10.80;9.70;;;20.00;75.40;;;;;;5003424;28;20037;-81
2023/06/15 06:39:50;;;;;;;10.55;9.48;;;20.10;75.00;;;;;;5001527;28;20121;-82
2023/06/15 06:42:16;;;;;;;10.98;9.88;;;20.20;75.30;;;;;;4998552;28;20052;-82
2023/06/15 06:44:41;;;;;;;11.85;9.00;;;20.30;74.80;;;;;;5005149;28;20096;-82
2023/06/15 06:47:07;;;;;;;10.23;9.23;;;20.40;74.90;;;;;;5002702;28;20474;-81
2023/06/15 06:49:33;;;;;;;10.13;9.13;;;20.40;74.80;;;;;;5001931;28;20045;-82
2023/06/15 06:51:59;;;;;;;9.95;9.00;;;20.40;74.70;;;;;;5003389;28;20054;-82
2023/06/15 06:54:24;;;;;;;9.55;8.65;;;20.50;74.40;;;;;;5004124;28;20048;-82
2023/06/15 06:56:50;;;;;;;9.13;8.35;;;20.50;74.10;;;;;;5006409;28;20038;-82
2023/06/15 06:59:15;;;;;;;9.50;8.55;;;20.50;74.10;;;;;;5003961;28;20037;-82
2023/06/15 07:01:43;;;;;;;9.43;8.10;;;20.60;74.10;;;;;;5003252;28;20100;-82
2023/06/15 07:04:09;;;;;;;9.27;8.02;;;20.60;73.90;;;;;;5018780;28;20033;-82
2023/06/15 07:06:34;;;;;;;8.80;7.95;;;20.70;73.90;;;;;;4999410;28;20050;-82
2023/06/15 07:09:00;;;;;;;8.25;7.45;;;20.70;73.80;;;;;;5004456;28;20050;-82
2023/06/15 07:11:26;;;;;;;8.80;7.93;;;20.70;73.70;;;;;;5002031;28;20073;-81
2023/06/15 07:13:52;;;;;;;8.15;7.43;;;20.80;73.70;;;;;;5000811;28;20424;-81
2023/06/15 07:16:17;;;;;;;7.72;6.97;;;20.80;73.60;;;;;;5002289;28;20050;-82
2023/06/15 07:18:43;;;;;;;6.95;6.30;;;20.80;73.60;;;;;;5001871;28;20037;-82
2023/06/15 07:21:09;;;;;;;8.00;7.30;;;20.80;74.10;;;;;;5002966;28;20484;-82
2023/06/15 07:23:34;;;;;;;8.65;7.75;;;20.80;73.40;;;;;;5021016;28;20431;-82
2023/06/15 07:26:00;;;;;;;8.10;7.32;;;20.80;73.30;;;;;;5004058;28;20048;-82
2023/06/15 07:28:25;;;;;;;7.90;7.30;;;20.90;73.30;;;;;;5001296;28;20053;-82
2023/06/15 07:30:51;;;;;;;7.82;7.15;;;20.90;73.30;;;;;;5001440;28;20042;-82
2023/06/15 07:33:17;;;;;;;7.35;6.72;;;20.90;73.20;;;;;;5001694;28;20478;-81
2023/06/15 07:35:43;;;;;;;7.93;7.28;;;20.90;73.20;;;;;;5006363;28;20575;-81
2023/06/15 07:38:08;;;;;;;7.90;7.07;;;20.90;73.20;;;;;;4652288;28;10000124;-82
2023/06/15 07:40:34;;;;;;;7.20;6.57;;;21.00;73.30;;;;;;5000576;28;20407;-84
2023/06/15 07:42:59;;;;;;;9.35;6.70;;;21.00;73.20;;;;;;4999323;28;20038;-84
2023/06/15 07:45:25;;;;;;;7.47;6.38;;;21.00;73.10;;;;;;5000028;28;20108;-82
2023/06/15 07:47:51;;;;;;;6.85;6.20;;;21.10;73.20;;;;;;5005708;28;20045;-84
2023/06/15 07:50:16;;;;;;;8.00;7.13;;;21.10;73.10;;;;;;4999905;28;20045;-82
2023/06/15 07:52:42;;;;;;;8.07;6.15;;;21.10;72.90;;;;;;4996534;28;20034;-82
2023/06/15 07:55:08;;;;;;;6.65;6.07;;;21.10;73.00;;;;;;4998795;28;20503;-83
2023/06/15 07:57:34;;;;;;;6.25;5.75;;;21.20;73.00;;;;;;4995835;28;20627;-79
2023/06/15 08:00:00;;;;;;;6.13;5.65;;;21.20;73.00;;;;;;4999781;28;20558;-82
2023/06/15 08:02:26;;;;;;;6.20;5.75;;;21.20;73.10;;;;;;5001573;28;20052;-82
2023/06/15 08:04:51;;;;;;;5.55;5.05;;;21.20;73.00;;;;;;5004368;28;20038;-82
2023/06/15 08:07:17;;;;;;;6.05;5.45;;;21.20;73.00;;;;;;5001948;28;20772;-79
2023/06/15 08:09:42;;;;;;;6.05;5.63;;;21.30;73.10;;;;;;5006959;28;20044;-82
2023/06/15 08:12:09;;;;;;;6.10;5.50;;;21.30;73.20;;;;;;5006087;28;20066;-84
2023/06/15 08:14:38;;;;;;;5.53;5.13;;;21.40;73.40;;;;;;4658459;28;9999809;-82
2023/06/15 08:17:03;;;;;;;5.32;4.85;;;21.40;73.40;;;;;;5002629;28;20044;-83
2023/06/15 08:19:29;;;;;;;5.65;5.25;;;21.40;73.30;;;;;;4998457;28;20399;-82
2023/06/15 08:21:56;;;;;;;5.20;4.68;;;21.40;73.20;;;;;;5005859;28;20073;-81
2023/06/15 08:24:22;;;;;;;5.65;5.07;;;21.40;73.20;;;;;;5003050;28;20185;-81
2023/06/15 08:26:48;;;;;;;9.40;4.70;;;21.40;73.20;;;;;;5004822;28;20038;-82
2023/06/15 08:29:17;;;;;;;4.97;4.68;;;21.40;73.20;;;;;;4983739;28;20053;-81
2023/06/15 08:31:43;;;;;;;6.43;5.00;;;21.40;73.20;;;;;;4998753;28;20046;-81
2023/06/15 08:34:08;;;;;;;8.68;5.43;;;21.40;73.20;;;;;;5003708;28;20054;-82
2023/06/15 08:36:34;;;;;;;5.25;4.85;;;21.50;73.10;;;;;;4999449;28;20697;-81
2023/06/15 08:39:00;;;;;;;5.05;4.65;;;21.50;73.10;;;;;;5002282;28;20063;-81
2023/06/15 08:41:27;;;;;;;4.88;4.53;;;21.50;73.20;;;;;;5003826;28;20527;-81
2023/06/15 08:43:53;;;;;;;5.28;4.88;;;21.50;73.00;;;;;;4997298;28;20034;-81
2023/06/15 08:46:18;;;;;;;4.80;4.40;;;21.50;73.10;;;;;;4999993;28;20463;-81
2023/06/15 08:48:45;;;;;;;4.68;4.38;;;21.60;73.10;;;;;;5001461;28;20046;-82
2023/06/15 08:51:12;;;;;;;4.85;4.55;;;21.60;72.80;;;;;;5002072;28;20037;-82
2023/06/15 08:53:39;;;;;;;4.55;4.25;;;21.60;72.80;;;;;;5004697;28;20630;-82
2023/06/15 08:56:06;;;;;;;4.55;4.25;;;21.60;73.20;;;;;;5000262;28;20030;-82
2023/06/15 08:58:32;;;;;;;4.70;4.40;;;21.70;73.20;;;;;;4982567;28;20097;-82
2023/06/15 09:01:00;;;;;;;4.85;4.47;;;21.70;73.40;;;;;;5002535;28;20411;-82
2023/06/15 09:03:25;;;;;;;4.88;4.47;;;21.70;73.20;;;;;;5012190;28;20039;-82
2023/06/15 09:05:51;;;;;;;4.57;4.18;;;21.70;73.30;;;;;;5016230;28;20049;-81
2023/06/15 09:08:17;;;;;;;4.72;4.25;;;21.70;73.40;;;;;;5015239;28;20050;-81
2023/06/15 09:10:42;;;;;;;3.83;3.53;;;21.80;73.30;;;;;;5012205;28;20037;-82
2023/06/15 09:13:15;;;;;;;4.00;3.70;;;21.80;73.50;;;;;;4999866;28;20077;-80
2023/06/15 09:15:43;;;;;;;4.13;3.78;;;21.80;73.20;;;;;;5000686;28;20038;-81
2023/06/15 09:18:08;;;;;;;3.58;3.38;;;21.80;73.20;;;;;;5001235;28;20470;-81
2023/06/15 09:20:38;;;;;;;3.28;3.08;;;21.80;73.20;;;;;;4983242;28;20046;-80
2023/06/15 09:23:05;;;;;;;3.45;3.25;;;21.80;73.10;;;;;;5002728;28;20046;-82
2023/06/15 09:25:36;;;;;;;2.83;2.72;;;21.80;73.00;;;;;;5001291;28;20558;-81
2023/06/15 09:28:06;;;;;;;3.55;3.35;;;21.90;73.10;;;;;;5002946;28;20058;-81
2023/06/15 09:30:34;;;;;;;3.13;2.92;;;21.80;73.00;;;;;;5014490;28;20519;-81
2023/06/15 09:33:20;;;;;;;3.65;3.40;;;21.90;72.90;;;;;;5002378;28;20100;-81
2023/06/15 09:36:02;;;;;;;3.15;3.03;;;21.90;72.90;;;;;;4998454;28;20045;-82
2023/06/15 09:38:28;;;;;;;3.90;3.70;;;21.90;72.90;;;;;;5002710;28;20088;-82
2023/06/15 09:40:54;;;;;;;3.35;3.15;;;21.90;72.70;;;;;;4999193;28;20475;-82
2023/06/15 09:43:20;;;;;;;3.35;2.83;;;21.90;72.80;;;;;;5013732;28;20535;-81
2023/06/15 09:45:52;;;;;;;3.53;3.33;;;22.00;72.80;;;;;;4987301;28;20050;-82
2023/06/15 09:48:17;;;;;;;3.08;2.85;;;22.00;72.80;;;;;;5000732;28;20535;-82
2023/06/15 09:50:43;;;;;;;3.35;3.15;;;22.00;72.80;;;;;;4985810;28;20129;-82
2023/06/15 09:53:12;;;;;;;3.40;3.20;;;22.00;72.70;;;;;;5001975;28;20046;-83
2023/06/15 09:55:40;;;;;;;3.10;2.90;;;22.00;73.50;;;;;;4999902;28;20052;-82
2023/06/15 09:58:06;;;;;;;3.33;3.13;;;22.00;73.20;;;;;;5002169;28;20046;-82
2023/06/15 10:00:31;;;;;;;3.45;3.25;;;22.00;72.60;;;;;;4998486;28;20120;-82
2023/06/15 10:02:57;;;;;;;3.10;2.90;;;22.10;72.60;;;;;;4968138;28;20458;-82
2023/06/15 10:05:27;;;;;;;3.30;3.10;;;22.10;72.50;;;;;;4984634;28;20046;-82
2023/06/15 10:07:53;;;;;;;3.38;3.17;;;22.10;72.50;;;;;;4998911;28;20168;-83
2023/06/15 10:10:19;;;;;;;3.40;3.20;;;22.10;72.50;;;;;;4985343;28;20072;-83
2023/06/15 10:12:47;;;;;;;3.20;3.08;;;22.10;72.40;;;;;;5003007;28;20046;-82
2023/06/15 10:15:15;;;;;;;3.42;3.22;;;22.10;72.30;;;;;;5004290;28;20041;-82
2023/06/15 10:17:42;;;;;;;3.00;2.85;;;22.10;72.30;;;;;;5004039;28;20054;-82
2023/06/15 10:20:17;;;;;;;2.80;2.70;;;22.10;72.30;;;;;;4653411;28;10000199;-82
2023/06/15 10:23:15;;;;;;;3.40;3.10;;;22.20;72.30;;;;;;4999273;28;20092;-82
2023/06/15 10:25:42;;;;;;;2.92;2.80;;;22.10;72.30;;;;;;4999794;28;20092;-83
2023/06/15 10:28:11;;;;;;;2.95;2.85;;;22.10;72.20;;;;;;5000139;28;20156;-82
2023/06/15 10:31:04;;;;;;;2.88;2.60;;;22.20;72.20;;;;;;4999427;28;20050;-81
2023/06/15 10:33:43;;;;;;;4.53;3.00;;;22.20;72.30;;;;;;4998601;28;20045;-82
2023/06/15 10:36:14;;;;;;;3.00;2.90;;;22.20;72.30;;;;;;5014677;28;20046;-83
2023/06/15 10:38:47;;;;;;;2.78;2.63;;;22.20;72.30;;;;;;4998218;28;20049;-81
2023/06/15 10:41:12;;;;;;;2.85;2.75;;;22.20;72.10;;;;;;4968376;28;20062;-82
2023/06/15 10:43:38;;;;;;;3.05;2.85;;;22.20;71.90;;;;;;4995213;28;20133;-81
2023/06/15 10:46:06;;;;;;;3.38;3.17;;;22.20;71.90;;;;;;5001388;28;20416;-81
2023/06/15 10:48:32;;;;;;;3.20;3.00;;;22.30;72.10;;;;;;4999731;28;20037;-81
2023/06/15 10:51:05;;;;;;;2.88;2.70;;;22.30;72.10;;;;;;5016574;28;20077;-82
2023/06/15 10:53:39;;;;;;;2.90;2.80;;;22.30;71.80;;;;;;5000025;28;20086;-83
2023/06/15 10:56:15;;;;;;;;;;;22.30;72.50;;;;;;5012779;28;20124;-82
2023/06/15 10:58:56;;;;;;;2.75;2.65;;;22.30;71.90;;;;;;5003227;28;19928;-81
2023/06/15 11:01:23;;;;;;;3.25;3.05;;;22.30;71.60;;;;;;5001963;28;20125;-82
2023/06/15 11:03:48;;;;;;;3.20;3.00;;;22.30;71.50;;;;;;4994906;28;20523;-82
2023/06/15 11:06:21;;;;;;;3.22;3.00;;;22.30;71.40;;;;;;5001327;28;20100;-82
2023/06/15 11:08:52;;;;;;;3.25;2.97;;;22.30;71.40;;;;;;5002158;28;20180;-84
2023/06/15 11:11:31;;;;;;;3.20;3.10;;;22.40;71.50;;;;;;4998030;28;20073;-81
2023/06/15 11:14:06;;;;;;;3.00;2.80;;;22.30;71.60;;;;;;4996697;28;20136;-81
2023/06/15 11:16:36;;;;;;;3.05;2.95;;;22.40;71.40;;;;;;4999260;28;20514;-81
2023/06/15 11:19:11;;;;;;;2.80;2.70;;;22.40;71.10;;;;;;4999780;28;20060;-81
2023/06/15 11:21:40;;;;;;;3.20;2.90;;;22.40;71.10;;;;;;4996663;28;20091;-79
2023/06/15 11:24:05;;;;;;;3.50;3.30;;;22.40;71.50;;;;;;5000595;28;20452;-81
2023/06/15 11:26:31;;;;;;;3.78;3.08;;;22.40;71.20;;;;;;5002234;28;20680;-81
2023/06/15 11:29:02;;;;;;;3.17;3.05;;;22.40;71.10;;;;;;4998650;28;20428;-81
2023/06/15 11:31:28;;;;;;;3.03;2.83;;;22.40;71.00;;;;;;4997082;28;20072;-81
2023/06/15 11:33:55;;;;;;;3.08;2.97;;;22.40;70.90;;;;;;4998821;28;20507;-81
2023/06/15 11:36:21;;;;;;;2.80;2.70;;;22.40;71.00;;;;;;5001851;28;20033;-81
2023/06/15 11:38:46;;;;;;;3.20;2.90;;;22.40;70.90;;;;;;5005890;28;20083;-81
2023/06/15 11:41:12;;;;;;;8.75;3.58;;;22.50;70.90;;;;;;4999688;28;20034;-82
2023/06/15 11:43:40;;;;;;;3.13;2.92;;;22.50;70.70;;;;;;4985800;28;20084;-78
2023/06/15 11:46:11;;;;;;;3.20;3.00;;;22.50;70.90;;;;;;5002907;28;20038;-81
2023/06/15 11:48:36;;;;;;;3.13;3.03;;;22.50;70.80;;;;;;5001459;28;20088;-81
2023/06/15 11:51:02;;;;;;;3.45;3.25;;;22.50;70.80;;;;;;5004480;28;20657;-82
2023/06/15 11:53:27;;;;;;;3.38;3.22;;;22.50;70.20;;;;;;5020681;28;20049;-82
2023/06/15 11:55:54;;;;;;;12.32;3.60;;;22.50;70.20;;;;;;4999378;28;20048;-81
2023/06/15 11:58:20;;;;;;;3.35;3.15;;;22.60;70.40;;;;;;5002106;28;20034;-81
2023/06/15 12:00:46;;;;;;;3.42;3.22;;;22.60;70.40;;;;;;5003010;28;20045;-80
2023/06/15 12:03:12;;;;;;;3.75;3.55;;;22.60;70.30;;;;;;5001660;28;20344;-81
2023/06/15 12:05:38;;;;;;;3.90;3.60;;;22.60;70.10;;;;;;5001644;28;20041;-81
2023/06/15 12:08:07;;;;;;;2.88;2.78;;;22.60;70.00;;;;;;5000561;28;20069;-81
2023/06/15 12:10:37;;;;;;;3.53;3.22;;;22.60;70.10;;;;;;4999568;28;21402;-80
2023/06/15 12:13:03;;;;;;;3.08;2.97;;;22.60;70.00;;;;;;5003378;28;20515;-80
2023/06/15 12:15:29;;;;;;;3.33;3.03;;;22.60;70.10;;;;;;5014633;28;20876;-81
2023/06/15 12:17:55;;;;;;;3.58;3.30;;;22.60;70.10;;;;;;5020183;28;20539;-81
2023/06/15 12:20:26;;;;;;;3.35;3.25;;;22.60;69.90;;;;;;5002186;28;20042;-81
2023/06/15 12:22:52;;;;;;;3.60;3.40;;;22.60;69.80;;;;;;4999793;28;20034;-80
2023/06/15 12:25:17;;;;;;;3.42;3.30;;;22.60;69.90;;;;;;5005001;28;20057;-80
2023/06/15 12:27:45;;;;;;;4.00;3.75;;;22.60;69.60;;;;;;5002221;28;20044;-81
2023/06/15 12:30:15;;;;;;;3.60;3.40;;;22.60;69.60;;;;;;5001596;28;20064;-81
2023/06/15 12:32:48;;;;;;;3.50;3.40;;;22.60;69.60;;;;;;5003851;28;20408;-82
2023/06/15 12:35:37;;;;;;;3.15;2.95;;;22.70;69.70;;;;;;5002696;28;20049;-81
2023/06/15 12:38:06;;;;;;;3.35;3.15;;;22.60;69.50;;;;;;4999007;28;20042;-81
2023/06/15 12:40:33;;;;;;;3.85;3.63;;;22.70;69.60;;;;;;4996747;28;20046;-82
2023/06/15 12:43:00;;;;;;;3.78;3.55;;;22.70;69.60;;;;;;4997594;28;20093;-81
2023/06/15 12:45:26;;;;;;;3.88;3.70;;;22.70;69.60;;;;;;5001366;28;20045;-81